Terminal Aerodrome Forecast
Issued by NWS

Home | Current Version | Previous Version | Text Only | Print | Product List | Glossary On
Versions: 1 2 3 4 5 6 7 8 9 10 11 12 13 14 15 16 17 18 19 20 21 22 23 24 25 26 27 28 29 30
735
FTUS41 KCAR 090539
TAFFVE
TAF
KFVE 090539Z 0906/1006 26008KT 5SM -SN SCT015 OVC040
      TEMPO 0906/0910 2SM -SN BKN015 OVC028
     FM091100 29006KT P6SM VCSH BKN030
     FM091700 30010G18KT P6SM BKN050
     FM092000 30012G22KT P6SM BKN070=

USA.gov is the U.S. government's official web portal to all federal, state and local government web resources and services.